Silver Lake, Washington
Current Conditions -  °F | °C
As of 12:53 AM on Saturday 22 Nov 2014 (Local Time) from KPAE Reporting Station
Broken Clouds Broken Clouds  
Wind Chill: 43°   Ceiling: 11000
Heat Index: 45°   Visibility: 10mi
Dew Point: 42°   Wind: 5mph
Humidity: 90%   Direction: NA
Pressure: 29.54"   Gusts: NA
Location:  47.9027°N, 122.261°W
Report Text: KPAE 220853Z AUTO VRB04KT 10SM FEW028 SCT075 BKN110 07/06 A2954 RMK AO2 RAE38 SLP003 P0011 60026 T00720056 51045
Loading
Personal Weather Stations






























Interactive Weather Map New forecast layout! Learn more

10-Day Weather Forecast

Advertisements
Track Severe Weather on mobile